createdAt,value
2019-05-12T00:00:03.748Z,7.13
2019-05-12T00:01:03.727Z,7.17
2019-05-12T00:02:03.712Z,7.16
2019-05-12T00:03:03.683Z,7.20
2019-05-12T00:04:03.657Z,7.24
2019-05-12T00:05:03.637Z,7.28
2019-05-12T00:06:03.612Z,7.27
2019-05-12T00:07:03.590Z,7.23
2019-05-12T00:08:03.574Z,7.28
2019-05-12T00:09:03.545Z,7.25
2019-05-12T00:10:03.518Z,7.15
2019-05-12T00:11:03.496Z,7.16
2019-05-12T00:12:03.483Z,7.07
2019-05-12T00:13:03.467Z,7.12
2019-05-12T00:14:03.431Z,7.20
2019-05-12T00:15:03.408Z,7.07
2019-05-12T00:16:03.395Z,7.17
2019-05-12T00:17:03.364Z,7.09
2019-05-12T00:18:03.338Z,7.13
2019-05-12T00:19:03.318Z,7.15
2019-05-12T00:20:03.308Z,7.13
2019-05-12T00:21:03.277Z,7.15
2019-05-12T00:22:03.257Z,7.12
2019-05-12T00:23:03.227Z,7.03
2019-05-12T00:24:03.215Z,7.10
2019-05-12T00:25:03.181Z,7.03
2019-05-12T00:26:03.398Z,6.99
2019-05-12T00:27:03.134Z,6.91
2019-05-12T00:28:03.121Z,6.99
2019-05-12T00:29:03.104Z,6.92
2019-05-12T00:30:03.067Z,6.98
2019-05-12T00:31:03.045Z,6.94
2019-05-12T00:32:03.024Z,6.88
2019-05-12T00:33:03.004Z,6.94
2019-05-12T00:34:02.978Z,6.94
2019-05-12T00:35:02.951Z,6.95
2019-05-12T00:36:02.932Z,6.92
2019-05-12T00:37:02.914Z,6.98
2019-05-12T00:38:02.884Z,7.06
2019-05-12T00:39:02.861Z,7.02
2019-05-12T00:40:02.842Z,7.09
2019-05-12T00:41:02.815Z,7.09
2019-05-12T00:42:02.793Z,7.15
2019-05-12T00:43:02.772Z,7.17
2019-05-12T00:44:02.748Z,7.12
2019-05-12T00:45:02.726Z,7.23
2019-05-12T00:46:02.703Z,7.24
2019-05-12T00:47:02.681Z,7.25
2019-05-12T00:48:02.658Z,7.21
2019-05-12T00:49:02.637Z,7.13
2019-05-12T00:50:02.613Z,7.06
2019-05-12T00:51:02.588Z,6.79
2019-05-12T00:52:02.568Z,6.80
2019-05-12T00:53:02.545Z,6.79
2019-05-12T00:54:02.557Z,6.76
2019-05-12T00:55:02.510Z,6.80
2019-05-12T00:56:02.478Z,6.84
2019-05-12T00:57:02.454Z,6.85
2019-05-12T00:58:02.432Z,6.95
2019-05-12T00:59:02.417Z,6.92
2019-05-12T01:00:02.392Z,7.05
2019-05-12T01:01:02.363Z,7.09
2019-05-12T01:02:02.338Z,6.94
2019-05-12T01:03:02.324Z,6.95
2019-05-12T01:04:02.295Z,6.85
2019-05-12T01:05:02.276Z,6.80
2019-05-12T01:06:02.249Z,6.61
2019-05-12T01:07:02.238Z,6.58
2019-05-12T01:08:02.207Z,6.55
2019-05-12T01:09:02.183Z,6.61
2019-05-12T01:10:04.843Z,6.62
2019-05-12T01:11:02.134Z,6.64
2019-05-12T01:12:02.116Z,6.56
2019-05-12T01:13:02.095Z,6.43
2019-05-12T01:14:02.068Z,6.49
2019-05-12T01:15:02.043Z,6.41
2019-05-12T01:16:02.019Z,6.48
2019-05-12T01:17:01.999Z,6.54
2019-05-12T01:18:01.973Z,6.62
2019-05-12T01:19:01.952Z,6.55
2019-05-12T01:20:01.937Z,6.34
2019-05-12T01:21:01.907Z,6.27
2019-05-12T01:22:01.883Z,6.25
2019-05-12T01:23:01.862Z,6.11
2019-05-12T01:24:03.482Z,6.06
2019-05-12T01:25:01.816Z,5.93
2019-05-12T01:26:01.911Z,5.93
2019-05-12T01:27:01.769Z,5.89
2019-05-12T01:28:01.747Z,5.91
2019-05-12T01:29:01.725Z,5.90
2019-05-12T01:30:01.704Z,5.90
2019-05-12T01:31:01.677Z,5.91
2019-05-12T01:32:01.654Z,5.90
2019-05-12T01:33:01.632Z,5.81
2019-05-12T01:34:01.611Z,5.72
2019-05-12T01:35:01.591Z,5.68
2019-05-12T01:36:01.566Z,5.64
2019-05-12T01:37:01.541Z,5.63
2019-05-12T01:38:01.655Z,5.49
2019-05-12T01:39:01.904Z,5.51
2019-05-12T01:40:01.479Z,5.56
2019-05-12T01:41:01.449Z,5.48
2019-05-12T01:42:01.433Z,5.49
2019-05-12T01:43:01.405Z,5.53
2019-05-12T01:44:01.382Z,5.46
2019-05-12T01:45:01.357Z,5.38
2019-05-12T01:46:01.334Z,5.33
2019-05-12T01:47:01.311Z,5.36
2019-05-12T01:48:01.289Z,5.20
2019-05-12T01:49:01.266Z,5.27
2019-05-12T01:50:01.242Z,5.21
2019-05-12T01:51:01.224Z,5.25
2019-05-12T01:52:01.196Z,5.27
2019-05-12T01:53:01.175Z,5.35
2019-05-12T01:54:11.044Z,5.45
2019-05-12T01:55:01.125Z,5.43
2019-05-12T01:56:01.103Z,5.56
2019-05-12T01:57:01.079Z,5.51
2019-05-12T01:58:01.057Z,5.54
2019-05-12T01:59:01.032Z,5.53
2019-05-12T02:00:01.011Z,5.51
2019-05-12T02:01:02.920Z,5.46
2019-05-12T02:02:00.962Z,5.45
2019-05-12T02:03:00.944Z,5.38
2019-05-12T02:04:00.922Z,5.45
2019-05-12T02:05:00.897Z,5.36
2019-05-12T02:06:00.873Z,5.39
2019-05-12T02:07:00.848Z,5.31
2019-05-12T02:08:00.825Z,5.31
2019-05-12T02:09:00.804Z,5.22
2019-05-12T02:10:00.779Z,5.12
2019-05-12T02:11:00.755Z,5.07
2019-05-12T02:12:00.736Z,5.18
2019-05-12T02:13:00.712Z,5.18
2019-05-12T02:14:00.684Z,5.04
2019-05-12T02:15:00.663Z,5.13
2019-05-12T02:16:00.642Z,5.12
2019-05-12T02:17:00.617Z,5.15
2019-05-12T02:18:00.591Z,5.21
2019-05-12T02:19:00.567Z,5.18
2019-05-12T02:20:00.546Z,5.25
2019-05-12T02:21:00.522Z,5.24
2019-05-12T02:22:00.506Z,5.12
2019-05-12T02:23:00.474Z,5.03
2019-05-12T02:24:00.452Z,5.06
2019-05-12T02:25:00.435Z,5.06
2019-05-12T02:26:00.405Z,5.00
2019-05-12T02:27:00.383Z,4.96
2019-05-12T02:28:00.368Z,4.94
2019-05-12T02:29:00.336Z,4.91
2019-05-12T02:30:00.315Z,4.75
2019-05-12T02:31:00.290Z,4.73
2019-05-12T02:32:00.267Z,4.78
2019-05-12T02:33:00.262Z,4.80
2019-05-12T02:34:00.263Z,4.84
2019-05-12T02:35:00.200Z,4.80
2019-05-12T02:36:00.175Z,4.85
2019-05-12T02:37:00.152Z,4.77
2019-05-12T02:38:00.136Z,4.67
2019-05-12T02:39:00.110Z,4.69
2019-05-12T02:40:00.085Z,4.69
2019-05-12T02:41:00.060Z,4.82
2019-05-12T02:42:00.033Z,4.85
2019-05-12T02:43:00.011Z,4.86
2019-05-12T02:43:59.999Z,4.92
2019-05-12T02:44:59.967Z,4.99
2019-05-12T02:45:59.937Z,4.88
2019-05-12T02:46:59.928Z,4.88
2019-05-12T02:47:59.893Z,4.75
2019-05-12T02:48:59.874Z,4.72
2019-05-12T02:49:59.851Z,4.66
2019-05-12T02:50:59.827Z,4.66
2019-05-12T02:51:59.803Z,4.65
2019-05-12T02:52:59.787Z,4.66
2019-05-12T02:53:59.762Z,4.70
2019-05-12T02:55:00.923Z,4.63
2019-05-12T02:55:59.707Z,4.69
2019-05-12T02:56:59.683Z,4.69
2019-05-12T02:57:59.658Z,4.65
2019-05-12T02:58:59.637Z,4.73
2019-05-12T02:59:59.611Z,4.73
2019-05-12T03:00:59.588Z,4.54
2019-05-12T03:01:59.565Z,4.66
2019-05-12T03:02:59.542Z,4.72
2019-05-12T03:03:59.526Z,4.80
2019-05-12T03:04:59.507Z,4.82
2019-05-12T03:05:59.473Z,4.89
2019-05-12T03:07:02.178Z,4.92
2019-05-12T03:07:59.425Z,5.03
2019-05-12T03:08:59.408Z,4.94
2019-05-12T03:09:59.378Z,4.94
2019-05-12T03:10:59.355Z,4.84
2019-05-12T03:11:59.330Z,4.82
2019-05-12T03:12:59.309Z,4.86
2019-05-12T03:13:59.291Z,4.89
2019-05-12T03:14:59.273Z,4.96
2019-05-12T03:15:59.239Z,4.89
2019-05-12T03:16:59.216Z,4.89
2019-05-12T03:17:59.194Z,5.04
2019-05-12T03:18:59.163Z,5.03
2019-05-12T03:19:59.149Z,5.10
2019-05-12T03:20:59.120Z,5.21
2019-05-12T03:21:59.096Z,5.15
2019-05-12T03:22:59.074Z,5.24
2019-05-12T03:23:59.053Z,5.25
2019-05-12T03:25:11.290Z,5.30
2019-05-12T03:25:59.009Z,5.27
2019-05-12T03:26:58.980Z,5.25
2019-05-12T03:27:58.964Z,5.24
2019-05-12T03:28:58.935Z,5.33
2019-05-12T03:29:58.911Z,5.31
2019-05-12T03:30:58.886Z,5.27
2019-05-12T03:31:58.876Z,5.30
2019-05-12T03:32:58.925Z,5.31
2019-05-12T03:34:00.409Z,5.33
2019-05-12T03:34:58.791Z,5.36
2019-05-12T03:36:00.223Z,5.30
2019-05-12T03:36:59.656Z,5.28
2019-05-12T03:37:58.723Z,5.25
2019-05-12T03:38:58.696Z,5.28
2019-05-12T03:39:58.678Z,5.35
2019-05-12T03:40:58.656Z,5.27
2019-05-12T03:41:58.625Z,5.20
2019-05-12T03:42:58.612Z,5.21
2019-05-12T03:43:58.578Z,5.31
2019-05-12T03:44:58.555Z,5.38
2019-05-12T03:45:58.534Z,5.38
2019-05-12T03:46:58.520Z,5.33
2019-05-12T03:47:58.488Z,5.30
2019-05-12T03:48:58.463Z,5.31
2019-05-12T03:49:58.440Z,5.30
2019-05-12T03:50:58.418Z,5.45
2019-05-12T03:51:58.395Z,5.46
2019-05-12T03:52:58.370Z,5.57
2019-05-12T03:53:58.360Z,5.57
2019-05-12T03:54:58.320Z,5.68
2019-05-12T03:55:58.299Z,5.67
2019-05-12T03:56:58.278Z,5.58
2019-05-12T03:57:58.254Z,5.58
2019-05-12T03:58:58.232Z,5.39
2019-05-12T03:59:58.212Z,5.45
2019-05-12T04:00:58.180Z,5.31
2019-05-12T04:01:58.159Z,5.38
2019-05-12T04:02:58.132Z,5.36
2019-05-12T04:03:58.121Z,5.30
2019-05-12T04:04:58.099Z,5.27
2019-05-12T04:05:58.062Z,5.35
2019-05-12T04:06:58.039Z,5.43
2019-05-12T04:07:58.015Z,5.43
2019-05-12T04:09:00.027Z,5.39
2019-05-12T04:09:57.969Z,5.46
2019-05-12T04:10:57.948Z,5.53
2019-05-12T04:11:57.923Z,5.67
2019-05-12T04:12:57.901Z,5.61
2019-05-12T04:13:57.875Z,5.71
2019-05-12T04:14:57.857Z,5.65
2019-05-12T04:15:57.831Z,5.79
2019-05-12T04:16:57.812Z,5.72
2019-05-12T04:17:57.782Z,5.72
2019-05-12T04:18:57.770Z,5.63
2019-05-12T04:19:57.735Z,5.57
2019-05-12T04:20:57.712Z,5.53
2019-05-12T04:21:57.689Z,5.48
2019-05-12T04:22:57.664Z,5.48
2019-05-12T04:23:57.643Z,5.48
2019-05-12T04:24:57.627Z,5.43
2019-05-12T04:26:07.083Z,5.45
2019-05-12T04:26:57.575Z,5.45
2019-05-12T04:27:57.549Z,5.56
2019-05-12T04:28:57.530Z,5.65
2019-05-12T04:29:57.505Z,5.67
2019-05-12T04:30:57.484Z,5.60
2019-05-12T04:31:57.454Z,5.79
2019-05-12T04:32:57.434Z,5.85
2019-05-12T04:33:57.415Z,5.86
2019-05-12T04:34:57.385Z,5.94
2019-05-12T04:35:57.359Z,6.01
2019-05-12T04:36:57.342Z,5.96
2019-05-12T04:37:57.315Z,6.04
2019-05-12T04:38:57.289Z,6.04
2019-05-12T04:39:57.267Z,6.01
2019-05-12T04:40:57.243Z,5.99
2019-05-12T04:41:57.223Z,6.01
2019-05-12T04:42:57.197Z,5.91
2019-05-12T04:43:57.172Z,5.93
2019-05-12T04:44:57.148Z,5.94
2019-05-12T04:45:57.143Z,5.97
2019-05-12T04:46:57.109Z,5.94
2019-05-12T04:47:57.081Z,5.91
2019-05-12T04:48:57.065Z,5.97
2019-05-12T04:49:57.041Z,5.94
2019-05-12T04:50:57.009Z,6.11
2019-05-12T04:51:56.986Z,6.00
2019-05-12T04:52:56.964Z,6.08
2019-05-12T04:53:56.945Z,6.15
2019-05-12T04:54:56.916Z,6.09
2019-05-12T04:56:14.482Z,6.18
2019-05-12T04:56:56.876Z,6.28
2019-05-12T04:57:56.846Z,6.30
2019-05-12T04:58:56.827Z,6.38
2019-05-12T04:59:56.804Z,6.48
2019-05-12T05:00:56.779Z,6.43
2019-05-12T05:01:56.757Z,6.55
2019-05-12T05:02:56.732Z,6.64
2019-05-12T05:03:56.710Z,6.62
2019-05-12T05:04:56.687Z,6.64
2019-05-12T05:05:56.662Z,6.76
2019-05-12T05:06:56.640Z,6.76
2019-05-12T05:07:56.616Z,6.79
2019-05-12T05:08:56.594Z,6.81
2019-05-12T05:09:56.569Z,6.84
2019-05-12T05:10:56.549Z,6.80
2019-05-12T05:11:56.526Z,6.79
2019-05-12T05:12:56.502Z,6.91
2019-05-12T05:13:56.487Z,6.94
2019-05-12T05:14:56.458Z,6.91
2019-05-12T05:15:56.433Z,7.07
2019-05-12T05:16:56.409Z,7.12
2019-05-12T05:17:56.384Z,7.20
2019-05-12T05:18:56.359Z,7.28
2019-05-12T05:19:56.338Z,7.24
2019-05-12T05:20:56.318Z,7.23
2019-05-12T05:21:56.290Z,7.23
2019-05-12T05:22:56.269Z,7.21
2019-05-12T05:23:56.251Z,7.28
2019-05-12T05:24:56.226Z,7.23
2019-05-12T05:25:56.200Z,7.23
2019-05-12T05:26:56.178Z,7.34
2019-05-12T05:27:56.155Z,7.32
2019-05-12T05:28:56.131Z,7.24
2019-05-12T05:29:56.107Z,7.40
2019-05-12T05:30:56.085Z,7.40
2019-05-12T05:31:56.062Z,7.43
2019-05-12T05:32:56.040Z,7.43
2019-05-12T05:33:56.017Z,7.40
2019-05-12T05:34:57.903Z,7.42
2019-05-12T05:35:55.977Z,7.50
2019-05-12T05:37:01.244Z,7.37
2019-05-12T05:37:55.923Z,7.49
2019-05-12T05:38:57.321Z,7.50
2019-05-12T05:39:55.879Z,7.49
2019-05-12T05:40:59.736Z,7.45
2019-05-12T05:41:55.837Z,7.49
2019-05-12T05:42:55.809Z,7.53
2019-05-12T05:43:58.378Z,7.53
2019-05-12T05:44:55.764Z,7.50
2019-05-12T05:46:02.516Z,7.67
2019-05-12T05:46:56.793Z,7.53
2019-05-12T05:47:59.532Z,7.57
2019-05-12T05:48:55.678Z,7.57
2019-05-12T05:49:55.649Z,7.55
2019-05-12T05:50:59.994Z,7.64
2019-05-12T05:51:57.603Z,7.57
2019-05-12T05:52:55.579Z,7.50
2019-05-12T05:53:55.556Z,7.61
2019-05-12T05:54:55.543Z,7.69
2019-05-12T05:56:00.084Z,7.67
2019-05-12T05:56:59.620Z,7.69
2019-05-12T05:57:59.870Z,7.63
2019-05-12T05:58:55.454Z,7.68
2019-05-12T05:59:55.419Z,7.69
2019-05-12T06:01:03.019Z,7.74
2019-05-12T06:01:55.373Z,7.74
2019-05-12T06:02:55.353Z,7.82
2019-05-12T06:03:58.401Z,7.83
2019-05-12T06:04:56.418Z,7.86
2019-05-12T06:05:55.280Z,7.89
2019-05-12T06:06:56.008Z,7.92
2019-05-12T06:07:55.236Z,7.95
2019-05-12T06:08:55.214Z,7.95
2019-05-12T06:09:55.189Z,7.95
2019-05-12T06:10:55.176Z,7.90
2019-05-12T06:11:59.166Z,7.93
2019-05-12T06:12:55.121Z,8.05
2019-05-12T06:13:55.099Z,8.00
2019-05-12T06:14:59.759Z,8.02
2019-05-12T06:15:55.052Z,8.16
2019-05-12T06:16:55.027Z,8.12
2019-05-12T06:17:55.007Z,8.07
2019-05-12T06:18:54.983Z,8.10
2019-05-12T06:19:54.964Z,8.15
2019-05-12T06:20:54.941Z,8.16
2019-05-12T06:21:54.912Z,8.19
2019-05-12T06:22:57.617Z,8.16
2019-05-12T06:23:54.869Z,8.25
2019-05-12T06:24:58.903Z,8.33
2019-05-12T06:25:55.029Z,8.43
2019-05-12T06:27:00.398Z,8.55
2019-05-12T06:27:59.973Z,8.56
2019-05-12T06:28:57.702Z,8.65
2019-05-12T06:30:01.003Z,8.71
2019-05-12T06:30:57.947Z,8.58
2019-05-12T06:31:54.689Z,8.71
2019-05-12T06:32:54.734Z,8.66
2019-05-12T06:33:54.636Z,8.73
2019-05-12T06:34:57.024Z,8.84
2019-05-12T06:35:54.591Z,8.89
2019-05-12T06:36:57.201Z,9.04
2019-05-12T06:38:00.090Z,8.87
2019-05-12T06:38:54.537Z,8.91
2019-05-12T06:39:56.465Z,8.91
2019-05-12T06:40:54.519Z,8.98
2019-05-12T06:41:57.186Z,8.94
2019-05-12T06:42:57.170Z,8.91
2019-05-12T06:43:54.409Z,9.14
2019-05-12T06:44:57.143Z,9.26
2019-05-12T06:45:54.517Z,9.31
2019-05-12T06:47:02.435Z,9.46
2019-05-12T06:47:56.130Z,9.48
2019-05-12T06:48:54.496Z,9.58
2019-05-12T06:49:58.024Z,9.68
2019-05-12T06:50:54.248Z,9.57
2019-05-12T06:52:01.819Z,9.65
2019-05-12T06:52:54.205Z,9.64
2019-05-12T06:53:54.180Z,9.64
2019-05-12T06:54:56.556Z,9.74
2019-05-12T06:55:54.161Z,9.66
2019-05-12T06:56:57.689Z,9.64
2019-05-12T06:57:54.098Z,9.64
2019-05-12T06:58:54.065Z,9.65
2019-05-12T06:59:55.178Z,9.60
2019-05-12T07:00:54.122Z,9.68
2019-05-12T07:01:58.776Z,9.68
2019-05-12T07:02:55.322Z,9.65
2019-05-12T07:03:53.961Z,9.79
2019-05-12T07:04:59.016Z,9.84
2019-05-12T07:05:53.914Z,9.83
2019-05-12T07:06:56.075Z,9.79
2019-05-12T07:07:53.867Z,9.86
2019-05-12T07:09:03.406Z,9.90
2019-05-12T07:09:57.063Z,10.11
2019-05-12T07:11:01.893Z,9.99
2019-05-12T07:12:02.831Z,9.91
2019-05-12T07:13:01.466Z,10.01
2019-05-12T07:14:02.135Z,9.91
2019-05-12T07:14:55.622Z,9.96
2019-05-12T07:15:54.444Z,10.01
2019-05-12T07:17:01.559Z,10.05
2019-05-12T07:17:55.779Z,10.18
2019-05-12T07:18:54.198Z,10.15
2019-05-12T07:19:56.972Z,10.26
2019-05-12T07:20:53.839Z,10.22
2019-05-12T07:21:58.731Z,10.15
2019-05-12T07:22:54.838Z,10.07
2019-05-12T07:23:53.602Z,10.04
2019-05-12T07:24:54.751Z,10.09
2019-05-12T07:25:55.006Z,10.01
2019-05-12T07:27:02.712Z,9.94
2019-05-12T07:28:00.072Z,9.91
2019-05-12T07:28:54.091Z,9.96
2019-05-12T07:29:54.195Z,9.93
2019-05-12T07:30:54.545Z,9.87
2019-05-12T07:31:53.768Z,9.81
2019-05-12T07:32:59.724Z,9.86
2019-05-12T07:33:54.201Z,9.81
2019-05-12T07:34:54.340Z,9.94
2019-05-12T07:36:01.071Z,10.18
2019-05-12T07:36:53.813Z,10.22
2019-05-12T07:37:53.911Z,10.30
2019-05-12T07:38:58.095Z,10.25
2019-05-12T07:39:53.859Z,10.22
2019-05-12T07:40:53.649Z,10.17
2019-05-12T07:41:54.927Z,10.07
2019-05-12T07:42:54.378Z,10.09
2019-05-12T07:43:56.769Z,10.07
2019-05-12T07:44:54.373Z,10.11
2019-05-12T07:46:01.838Z,10.08
2019-05-12T07:46:54.062Z,10.12
2019-05-12T07:47:54.138Z,9.96
2019-05-12T07:48:54.247Z,9.90
2019-05-12T07:49:53.801Z,9.91
2019-05-12T07:50:56.369Z,9.81
2019-05-12T07:51:54.228Z,9.83
2019-05-12T07:52:54.286Z,9.78
2019-05-12T07:53:57.225Z,9.72
2019-05-12T07:54:55.898Z,9.78
2019-05-12T07:55:53.274Z,9.91
2019-05-12T07:56:53.978Z,10.20
2019-05-12T07:57:58.360Z,10.26
2019-05-12T07:58:56.516Z,10.44
2019-05-12T07:59:54.130Z,10.51
2019-05-12T08:00:53.840Z,10.59
2019-05-12T08:01:54.948Z,10.67
2019-05-12T08:02:54.043Z,10.78
2019-05-12T08:03:57.309Z,10.92
2019-05-12T08:04:54.170Z,10.94
2019-05-12T08:05:57.410Z,11.11
2019-05-12T08:06:53.835Z,10.96
2019-05-12T08:07:53.568Z,10.82
2019-05-12T08:08:58.093Z,10.74
2019-05-12T08:09:53.649Z,10.67
2019-05-12T08:10:55.857Z,10.59
2019-05-12T08:11:54.092Z,10.61
2019-05-12T08:12:59.373Z,10.47
2019-05-12T08:13:54.223Z,10.48
2019-05-12T08:14:54.165Z,10.36
2019-05-12T08:15:55.634Z,10.34
2019-05-12T08:16:54.268Z,10.25
2019-05-12T08:17:57.714Z,10.26
2019-05-12T08:18:53.503Z,10.22
2019-05-12T08:19:53.625Z,10.27
2019-05-12T08:20:53.893Z,10.38
2019-05-12T08:21:53.709Z,10.53
2019-05-12T08:22:54.163Z,10.48
2019-05-12T08:23:53.403Z,10.51
2019-05-12T08:24:53.779Z,10.51
2019-05-12T08:25:54.040Z,10.20
2019-05-12T08:26:59.547Z,10.08
2019-05-12T08:28:04.138Z,10.12
2019-05-12T08:28:53.556Z,10.45
2019-05-12T08:30:00.798Z,10.63
2019-05-12T08:30:54.670Z,10.94
2019-05-12T08:31:54.621Z,11.22
2019-05-12T08:32:56.360Z,11.33
2019-05-12T08:33:53.829Z,11.47
2019-05-12T08:34:54.088Z,11.42
2019-05-12T08:35:51.907Z,11.49
2019-05-12T08:36:56.547Z,11.54
2019-05-12T08:37:54.315Z,11.79
2019-05-12T08:38:53.637Z,12.01
2019-05-12T08:39:53.273Z,11.94
2019-05-12T08:40:54.316Z,12.09
2019-05-12T08:41:53.535Z,12.13
2019-05-12T08:42:53.932Z,12.19
2019-05-12T08:43:57.897Z,12.09
2019-05-12T08:44:54.120Z,11.94
2019-05-12T08:45:53.623Z,11.70
2019-05-12T08:46:55.799Z,11.80
2019-05-12T08:47:51.656Z,12.04
2019-05-12T08:48:57.907Z,11.80
2019-05-12T08:49:58.364Z,11.58
2019-05-12T08:50:51.587Z,11.62
2019-05-12T08:51:55.821Z,11.25
2019-05-12T08:52:53.765Z,11.17
2019-05-12T08:53:53.899Z,10.94
2019-05-12T08:54:53.618Z,11.09
2019-05-12T08:55:53.753Z,11.07
2019-05-12T08:56:59.327Z,11.10
2019-05-12T08:57:51.431Z,11.25
2019-05-12T08:58:54.314Z,11.09
2019-05-12T08:59:54.673Z,11.17
2019-05-12T09:00:51.384Z,11.43
2019-05-12T09:01:53.850Z,11.62
2019-05-12T09:02:51.326Z,11.60
2019-05-12T09:03:53.214Z,11.43
2019-05-12T09:04:55.456Z,11.49
2019-05-12T09:05:53.535Z,11.32
2019-05-12T09:06:56.685Z,11.39
2019-05-12T09:07:51.229Z,11.29
2019-05-12T09:08:51.207Z,11.42
2019-05-12T09:09:53.255Z,11.78
2019-05-12T09:10:54.727Z,12.01
2019-05-12T09:11:51.130Z,11.91
2019-05-12T09:12:51.113Z,11.96
2019-05-12T09:13:52.760Z,12.04
2019-05-12T09:14:51.068Z,11.98
2019-05-12T09:15:51.046Z,11.85
2019-05-12T09:16:53.643Z,11.72
2019-05-12T09:17:56.525Z,11.44
2019-05-12T09:18:50.988Z,11.37
2019-05-12T09:19:54.978Z,11.18
2019-05-12T09:20:53.473Z,11.42
2019-05-12T09:21:50.926Z,11.43
2019-05-12T09:22:58.014Z,11.46
2019-05-12T09:23:53.989Z,11.47
2019-05-12T09:24:53.233Z,11.42
2019-05-12T09:25:50.831Z,11.58
2019-05-12T09:26:50.806Z,11.75
2019-05-12T09:27:50.786Z,11.72
2019-05-12T09:28:50.766Z,11.76
2019-05-12T09:29:50.751Z,11.70
2019-05-12T09:30:50.733Z,11.73
2019-05-12T09:31:50.739Z,12.07
2019-05-12T09:32:53.979Z,12.12
2019-05-12T09:33:50.658Z,12.20
2019-05-12T09:34:52.847Z,12.38
2019-05-12T09:35:50.626Z,12.39
2019-05-12T09:36:51.897Z,12.52
2019-05-12T09:37:50.584Z,12.53
2019-05-12T09:38:53.644Z,12.45
2019-05-12T09:39:51.843Z,12.29
2019-05-12T09:40:52.814Z,12.60
2019-05-12T09:41:52.759Z,12.59
2019-05-12T09:42:50.481Z,12.53
2019-05-12T09:43:50.658Z,12.50
2019-05-12T09:44:50.429Z,12.52
2019-05-12T09:45:54.005Z,12.62
2019-05-12T09:46:50.385Z,12.86
2019-05-12T09:47:50.364Z,12.72
2019-05-12T09:48:52.348Z,12.47
2019-05-12T09:49:50.335Z,12.70
2019-05-12T09:50:51.491Z,12.87
2019-05-12T09:51:50.281Z,13.04
2019-05-12T09:52:54.980Z,13.03
2019-05-12T09:53:51.123Z,13.12
2019-05-12T09:54:50.222Z,12.97
2019-05-12T09:55:50.200Z,13.00
2019-05-12T09:56:55.393Z,13.22
2019-05-12T09:57:50.166Z,13.28
2019-05-12T09:58:59.086Z,13.23
2019-05-12T09:59:57.278Z,12.85
2019-05-12T10:00:50.095Z,12.64
2019-05-12T10:01:50.075Z,12.57
2019-05-12T10:02:51.211Z,12.59
2019-05-12T10:03:50.041Z,12.68
2019-05-12T10:04:50.282Z,12.93
2019-05-12T10:05:49.995Z,13.15
2019-05-12T10:06:49.974Z,13.14
2019-05-12T10:07:49.950Z,12.95
2019-05-12T10:08:49.930Z,13.11
2019-05-12T10:09:55.091Z,13.26
2019-05-12T10:10:49.894Z,13.45
2019-05-12T10:11:53.911Z,13.62
2019-05-12T10:12:50.662Z,13.44
2019-05-12T10:13:49.832Z,13.59
2019-05-12T10:14:49.812Z,13.46
2019-05-12T10:15:49.786Z,13.48
2019-05-12T10:16:49.987Z,13.44
2019-05-12T10:17:49.746Z,13.42
2019-05-12T10:18:51.459Z,13.57
2019-05-12T10:19:56.201Z,13.57
2019-05-12T10:20:49.695Z,13.60
2019-05-12T10:21:57.812Z,13.62
2019-05-12T10:22:49.644Z,13.66
2019-05-12T10:23:51.439Z,13.39
2019-05-12T10:24:55.946Z,13.25
2019-05-12T10:25:49.582Z,13.22
2019-05-12T10:26:50.707Z,13.39
2019-05-12T10:27:49.558Z,13.44
2019-05-12T10:28:52.474Z,13.60
2019-05-12T10:29:49.514Z,13.42
2019-05-12T10:30:55.219Z,13.33
2019-05-12T10:31:49.476Z,13.22
2019-05-12T10:32:49.448Z,13.15
2019-05-12T10:33:54.869Z,13.33
2019-05-12T10:34:51.123Z,13.39
2019-05-12T10:35:49.385Z,13.45
2019-05-12T10:36:49.394Z,13.67
2019-05-12T10:37:49.344Z,13.55
2019-05-12T10:38:49.322Z,13.57
2019-05-12T10:39:49.326Z,13.39
2019-05-12T10:40:49.287Z,13.28
2019-05-12T10:41:49.265Z,13.20
2019-05-12T10:42:49.672Z,13.36
2019-05-12T10:43:56.068Z,13.44
2019-05-12T10:44:49.203Z,13.46
2019-05-12T10:45:49.181Z,13.57
2019-05-12T10:46:49.160Z,13.63
2019-05-12T10:47:49.143Z,13.73
2019-05-12T10:48:49.117Z,13.88
2019-05-12T10:49:49.103Z,13.51
2019-05-12T10:50:49.092Z,13.70
2019-05-12T10:51:49.064Z,13.42
2019-05-12T10:52:49.054Z,13.39
2019-05-12T10:53:56.783Z,13.29
2019-05-12T10:54:48.996Z,13.12
2019-05-12T10:55:48.980Z,12.93
2019-05-12T10:56:48.956Z,13.03
2019-05-12T10:57:52.928Z,12.93
2019-05-12T10:58:48.918Z,13.07
2019-05-12T10:59:48.914Z,13.14
2019-05-12T11:00:48.876Z,13.25
2019-05-12T11:01:49.255Z,13.45
2019-05-12T11:02:48.834Z,13.60
2019-05-12T11:03:50.748Z,13.84
2019-05-12T11:04:48.794Z,14.12
2019-05-12T11:05:48.781Z,14.33
2019-05-12T11:06:48.757Z,13.77
2019-05-12T11:07:48.738Z,13.67
2019-05-12T11:08:51.258Z,13.64
2019-05-12T11:09:48.703Z,13.59
2019-05-12T11:10:50.419Z,13.64
2019-05-12T11:11:48.647Z,13.66
2019-05-12T11:12:48.631Z,13.85
2019-05-12T11:13:49.975Z,13.96
2019-05-12T11:14:48.601Z,13.96
2019-05-12T11:15:49.773Z,13.97
2019-05-12T11:16:48.554Z,14.10
2019-05-12T11:17:49.819Z,14.17
2019-05-12T11:18:48.514Z,14.06
2019-05-12T11:19:51.346Z,14.07
2019-05-12T11:20:48.474Z,14.07
2019-05-12T11:21:48.445Z,14.03
2019-05-12T11:22:48.431Z,14.20
2019-05-12T11:23:48.408Z,14.06
2019-05-12T11:24:48.396Z,14.04
2019-05-12T11:25:48.369Z,14.09
2019-05-12T11:26:48.354Z,14.21
2019-05-12T11:27:48.330Z,14.20
2019-05-12T11:28:48.321Z,14.17
2019-05-12T11:29:49.592Z,14.22
2019-05-12T11:30:48.265Z,14.29
2019-05-12T11:31:48.255Z,14.21
2019-05-12T11:32:48.237Z,14.37
2019-05-12T11:33:48.215Z,14.27
2019-05-12T11:34:48.186Z,14.42
2019-05-12T11:35:48.175Z,14.60
2019-05-12T11:36:48.157Z,14.51
2019-05-12T11:37:48.126Z,14.35
2019-05-12T11:38:48.110Z,14.29
2019-05-12T11:39:48.090Z,14.28
2019-05-12T11:40:48.071Z,14.55
2019-05-12T11:41:48.065Z,14.64
2019-05-12T11:42:58.990Z,14.57
2019-05-12T11:43:48.013Z,14.62
2019-05-12T11:44:47.999Z,14.75
2019-05-12T11:45:47.990Z,14.78
2019-05-12T11:46:47.958Z,14.75
2019-05-12T11:47:47.937Z,14.62
2019-05-12T11:48:50.288Z,14.45
2019-05-12T11:49:47.894Z,14.32
2019-05-12T11:50:51.284Z,14.29
2019-05-12T11:51:47.852Z,14.25
2019-05-12T11:52:51.019Z,14.00
2019-05-12T11:53:47.816Z,13.95
2019-05-12T11:54:51.167Z,13.92
2019-05-12T11:55:47.776Z,14.14
2019-05-12T11:56:50.361Z,14.40
2019-05-12T11:57:47.734Z,14.72
2019-05-12T11:58:51.450Z,14.64
2019-05-12T12:00:00.898Z,14.70
2019-05-12T12:00:47.695Z,14.89
2019-05-12T12:01:49.818Z,14.91
2019-05-12T12:02:47.636Z,14.92
2019-05-12T12:03:47.617Z,14.92
2019-05-12T12:04:47.604Z,14.88
2019-05-12T12:05:47.592Z,15.06
2019-05-12T12:06:47.567Z,15.21
2019-05-12T12:07:51.296Z,15.20
2019-05-12T12:08:47.524Z,15.11
2019-05-12T12:09:49.489Z,14.94
2019-05-12T12:10:49.259Z,15.03
2019-05-12T12:11:47.461Z,15.02
2019-05-12T12:12:49.203Z,14.89
2019-05-12T12:13:47.421Z,14.70
2019-05-12T12:14:50.296Z,14.88
2019-05-12T12:15:47.387Z,15.20
2019-05-12T12:16:50.491Z,15.31
2019-05-12T12:17:47.341Z,15.47
2019-05-12T12:18:52.033Z,15.32
2019-05-12T12:19:47.305Z,15.19
2019-05-12T12:20:47.298Z,14.81
2019-05-12T12:21:50.002Z,14.72
2019-05-12T12:22:47.251Z,14.77
2019-05-12T12:23:50.119Z,14.68
2019-05-12T12:24:47.208Z,14.57
2019-05-12T12:25:48.701Z,14.57
2019-05-12T12:26:47.167Z,14.52
2019-05-12T12:27:47.169Z,14.45
2019-05-12T12:28:47.134Z,14.33
2019-05-12T12:29:47.112Z,14.45
2019-05-12T12:30:51.266Z,14.42
2019-05-12T12:31:47.080Z,14.29
2019-05-12T12:32:50.252Z,14.10
2019-05-12T12:33:47.281Z,13.85
2019-05-12T12:34:47.013Z,13.78
2019-05-12T12:35:50.377Z,13.85
2019-05-12T12:36:46.973Z,13.81
2019-05-12T12:37:46.950Z,13.73
2019-05-12T12:38:46.945Z,13.91
2019-05-12T12:39:46.915Z,14.06
2019-05-12T12:40:46.890Z,13.97
2019-05-12T12:41:58.351Z,13.97
2019-05-12T12:42:47.329Z,13.73
2019-05-12T12:43:46.828Z,13.81
2019-05-12T12:44:46.806Z,13.85
2019-05-12T12:45:46.788Z,13.92
2019-05-12T12:46:51.132Z,14.07
2019-05-12T12:47:49.227Z,14.09
2019-05-12T12:48:46.728Z,14.15
2019-05-12T12:49:49.228Z,14.03
2019-05-12T12:50:46.682Z,13.97
2019-05-12T12:51:46.666Z,13.69
2019-05-12T12:52:48.853Z,13.67
2019-05-12T12:53:46.623Z,13.66
2019-05-12T12:54:46.617Z,13.55
2019-05-12T12:55:46.582Z,13.70
2019-05-12T12:56:46.568Z,13.88
2019-05-12T12:57:50.673Z,14.12
2019-05-12T12:58:46.527Z,14.04
2019-05-12T12:59:51.528Z,14.20
2019-05-12T13:00:49.672Z,14.37
2019-05-12T13:01:46.462Z,14.50
2019-05-12T13:02:49.251Z,14.55
2019-05-12T13:03:46.423Z,14.68
2019-05-12T13:04:50.292Z,14.78
2019-05-12T13:05:46.382Z,14.70
2019-05-12T13:06:46.363Z,14.77